sensor_id;sensor_type;location;lat;lon;timestamp;P1;durP1;ratioP1;P2;durP2;ratioP2
9260;SDS011;4667;42.726;23.252;2023-10-13T00:00:26;16.20;;;8.63;;
9260;SDS011;4667;42.726;23.252;2023-10-13T00:02:55;14.43;;;7.97;;
9260;SDS011;4667;42.726;23.252;2023-10-13T00:05:26;15.20;;;8.07;;
9260;SDS011;4667;42.726;23.252;2023-10-13T00:07:53;12.13;;;8.17;;
9260;SDS011;4667;42.726;23.252;2023-10-13T00:10:20;15.37;;;7.63;;
9260;SDS011;4667;42.726;23.252;2023-10-13T00:12:47;12.83;;;7.47;;
9260;SDS011;4667;42.726;23.252;2023-10-13T00:15:17;9.40;;;7.47;;
9260;SDS011;4667;42.726;23.252;2023-10-13T00:17:46;12.40;;;7.20;;
9260;SDS011;4667;42.726;23.252;2023-10-13T00:20:13;11.40;;;7.80;;
9260;SDS011;4667;42.726;23.252;2023-10-13T00:23:01;9.83;;;7.43;;
9260;SDS011;4667;42.726;23.252;2023-10-13T00:25:27;10.43;;;8.23;;
9260;SDS011;4667;42.726;23.252;2023-10-13T00:28:05;11.03;;;7.77;;
9260;SDS011;4667;42.726;23.252;2023-10-13T00:30:35;13.43;;;7.67;;
9260;SDS011;4667;42.726;23.252;2023-10-13T00:33:02;14.30;;;7.97;;
9260;SDS011;4667;42.726;23.252;2023-10-13T00:35:30;13.00;;;8.47;;
9260;SDS011;4667;42.726;23.252;2023-10-13T00:38:02;17.73;;;8.17;;
9260;SDS011;4667;42.726;23.252;2023-10-13T00:40:37;14.57;;;8.10;;
9260;SDS011;4667;42.726;23.252;2023-10-13T00:43:09;17.13;;;8.03;;
9260;SDS011;4667;42.726;23.252;2023-10-13T00:45:55;16.67;;;8.30;;
9260;SDS011;4667;42.726;23.252;2023-10-13T00:48:23;13.87;;;8.57;;
9260;SDS011;4667;42.726;23.252;2023-10-13T00:50:55;15.90;;;8.63;;
9260;SDS011;4667;42.726;23.252;2023-10-13T00:53:28;12.43;;;9.03;;
9260;SDS011;4667;42.726;23.252;2023-10-13T00:55:54;12.87;;;8.10;;
9260;SDS011;4667;42.726;23.252;2023-10-13T00:58:22;12.80;;;8.33;;
9260;SDS011;4667;42.726;23.252;2023-10-13T01:00:50;14.47;;;8.30;;
9260;SDS011;4667;42.726;23.252;2023-10-13T01:03:23;14.30;;;8.63;;
9260;SDS011;4667;42.726;23.252;2023-10-13T01:05:52;20.73;;;8.47;;
9260;SDS011;4667;42.726;23.252;2023-10-13T01:11:03;15.83;;;8.63;;
9260;SDS011;4667;42.726;23.252;2023-10-13T01:13:32;12.73;;;7.70;;
9260;SDS011;4667;42.726;23.252;2023-10-13T01:16:01;12.37;;;8.13;;
9260;SDS011;4667;42.726;23.252;2023-10-13T01:18:33;13.90;;;8.30;;
9260;SDS011;4667;42.726;23.252;2023-10-13T01:21:09;10.53;;;8.43;;
9260;SDS011;4667;42.726;23.252;2023-10-13T01:23:42;17.27;;;8.93;;
9260;SDS011;4667;42.726;23.252;2023-10-13T01:26:08;16.03;;;9.20;;
9260;SDS011;4667;42.726;23.252;2023-10-13T01:28:37;13.13;;;7.93;;
9260;SDS011;4667;42.726;23.252;2023-10-13T01:31:10;14.70;;;7.90;;
9260;SDS011;4667;42.726;23.252;2023-10-13T01:33:49;10.13;;;7.70;;
9260;SDS011;4667;42.726;23.252;2023-10-13T01:36:18;11.13;;;7.80;;
9260;SDS011;4667;42.726;23.252;2023-10-13T01:38:46;12.67;;;7.97;;
9260;SDS011;4667;42.726;23.252;2023-10-13T01:41:12;13.80;;;8.13;;
9260;SDS011;4667;42.726;23.252;2023-10-13T01:43:39;12.50;;;8.03;;
9260;SDS011;4667;42.726;23.252;2023-10-13T01:46:05;16.70;;;8.83;;
9260;SDS011;4667;42.726;23.252;2023-10-13T01:48:34;11.17;;;7.70;;
9260;SDS011;4667;42.726;23.252;2023-10-13T01:51:04;11.07;;;8.00;;
9260;SDS011;4667;42.726;23.252;2023-10-13T01:53:35;11.67;;;7.87;;
9260;SDS011;4667;42.726;23.252;2023-10-13T01:56:06;10.13;;;8.13;;
9260;SDS011;4667;42.726;23.252;2023-10-13T01:58:35;11.00;;;8.13;;
9260;SDS011;4667;42.726;23.252;2023-10-13T02:01:06;13.13;;;7.73;;
9260;SDS011;4667;42.726;23.252;2023-10-13T02:03:32;11.73;;;7.93;;
9260;SDS011;4667;42.726;23.252;2023-10-13T02:06:01;19.30;;;7.97;;
9260;SDS011;4667;42.726;23.252;2023-10-13T02:08:29;10.23;;;7.97;;
9260;SDS011;4667;42.726;23.252;2023-10-13T02:10:57;12.67;;;7.63;;
9260;SDS011;4667;42.726;23.252;2023-10-13T02:13:25;13.10;;;8.83;;
9260;SDS011;4667;42.726;23.252;2023-10-13T02:15:53;21.27;;;9.40;;
9260;SDS011;4667;42.726;23.252;2023-10-13T02:18:21;15.30;;;8.10;;
9260;SDS011;4667;42.726;23.252;2023-10-13T02:20:52;13.97;;;8.30;;
9260;SDS011;4667;42.726;23.252;2023-10-13T02:23:20;11.53;;;8.20;;
9260;SDS011;4667;42.726;23.252;2023-10-13T02:25:49;13.07;;;7.80;;
9260;SDS011;4667;42.726;23.252;2023-10-13T02:28:18;15.80;;;8.40;;
9260;SDS011;4667;42.726;23.252;2023-10-13T02:30:54;13.03;;;8.87;;
9260;SDS011;4667;42.726;23.252;2023-10-13T02:33:22;11.27;;;7.47;;
9260;SDS011;4667;42.726;23.252;2023-10-13T02:35:54;15.70;;;8.63;;
9260;SDS011;4667;42.726;23.252;2023-10-13T02:38:21;14.20;;;8.73;;
9260;SDS011;4667;42.726;23.252;2023-10-13T02:40:59;16.40;;;8.00;;
9260;SDS011;4667;42.726;23.252;2023-10-13T02:43:30;11.23;;;7.73;;
9260;SDS011;4667;42.726;23.252;2023-10-13T02:46:00;10.83;;;7.83;;
9260;SDS011;4667;42.726;23.252;2023-10-13T02:48:26;11.97;;;8.33;;
9260;SDS011;4667;42.726;23.252;2023-10-13T02:50:57;12.03;;;8.17;;
9260;SDS011;4667;42.726;23.252;2023-10-13T02:53:27;11.80;;;8.50;;
9260;SDS011;4667;42.726;23.252;2023-10-13T02:55:55;15.77;;;8.47;;
9260;SDS011;4667;42.726;23.252;2023-10-13T02:58:23;12.67;;;7.93;;
9260;SDS011;4667;42.726;23.252;2023-10-13T03:01:05;12.73;;;8.60;;
9260;SDS011;4667;42.726;23.252;2023-10-13T03:03:42;13.60;;;8.50;;
9260;SDS011;4667;42.726;23.252;2023-10-13T03:06:12;11.27;;;8.87;;
9260;SDS011;4667;42.726;23.252;2023-10-13T03:08:39;15.90;;;8.63;;
9260;SDS011;4667;42.726;23.252;2023-10-13T03:11:05;11.17;;;8.30;;
9260;SDS011;4667;42.726;23.252;2023-10-13T03:13:32;15.87;;;8.80;;
9260;SDS011;4667;42.726;23.252;2023-10-13T03:15:59;18.47;;;9.13;;
9260;SDS011;4667;42.726;23.252;2023-10-13T03:18:26;15.27;;;8.73;;
9260;SDS011;4667;42.726;23.252;2023-10-13T03:20:58;10.70;;;8.30;;
9260;SDS011;4667;42.726;23.252;2023-10-13T03:23:27;10.60;;;7.70;;
9260;SDS011;4667;42.726;23.252;2023-10-13T03:25:56;16.00;;;8.40;;
9260;SDS011;4667;42.726;23.252;2023-10-13T03:28:29;11.17;;;8.20;;
9260;SDS011;4667;42.726;23.252;2023-10-13T03:30:59;14.33;;;8.63;;
9260;SDS011;4667;42.726;23.252;2023-10-13T03:33:27;12.73;;;8.03;;
9260;SDS011;4667;42.726;23.252;2023-10-13T03:35:58;15.47;;;9.07;;
9260;SDS011;4667;42.726;23.252;2023-10-13T03:38:31;12.87;;;8.90;;
9260;SDS011;4667;42.726;23.252;2023-10-13T03:41:01;14.43;;;8.63;;
9260;SDS011;4667;42.726;23.252;2023-10-13T03:43:37;21.70;;;9.40;;
9260;SDS011;4667;42.726;23.252;2023-10-13T03:46:16;13.43;;;8.73;;
9260;SDS011;4667;42.726;23.252;2023-10-13T03:48:48;12.23;;;8.90;;
9260;SDS011;4667;42.726;23.252;2023-10-13T03:51:26;15.03;;;8.63;;
9260;SDS011;4667;42.726;23.252;2023-10-13T03:53:56;13.67;;;8.33;;
9260;SDS011;4667;42.726;23.252;2023-10-13T03:56:24;17.50;;;9.40;;
9260;SDS011;4667;42.726;23.252;2023-10-13T03:59:04;16.83;;;8.63;;
9260;SDS011;4667;42.726;23.252;2023-10-13T04:01:34;14.63;;;8.53;;
9260;SDS011;4667;42.726;23.252;2023-10-13T04:04:13;14.17;;;8.77;;
9260;SDS011;4667;42.726;23.252;2023-10-13T04:06:59;14.37;;;8.30;;
9260;SDS011;4667;42.726;23.252;2023-10-13T04:09:38;12.53;;;8.27;;
9260;SDS011;4667;42.726;23.252;2023-10-13T04:12:44;15.97;;;8.57;;
9260;SDS011;4667;42.726;23.252;2023-10-13T04:15:28;17.90;;;9.63;;
9260;SDS011;4667;42.726;23.252;2023-10-13T04:18:05;15.33;;;9.67;;
9260;SDS011;4667;42.726;23.252;2023-10-13T04:20:45;14.63;;;9.10;;
9260;SDS011;4667;42.726;23.252;2023-10-13T04:23:29;14.30;;;10.00;;
9260;SDS011;4667;42.726;23.252;2023-10-13T04:26:14;17.93;;;9.70;;
9260;SDS011;4667;42.726;23.252;2023-10-13T04:28:47;21.07;;;9.87;;
9260;SDS011;4667;42.726;23.252;2023-10-13T04:31:16;14.77;;;10.07;;
9260;SDS011;4667;42.726;23.252;2023-10-13T04:34:19;19.00;;;11.00;;
9260;SDS011;4667;42.726;23.252;2023-10-13T04:36:53;14.83;;;10.53;;
9260;SDS011;4667;42.726;23.252;2023-10-13T04:39:36;13.87;;;10.80;;
9260;SDS011;4667;42.726;23.252;2023-10-13T04:42:04;24.67;;;10.43;;
9260;SDS011;4667;42.726;23.252;2023-10-13T04:44:38;19.97;;;11.77;;
9260;SDS011;4667;42.726;23.252;2023-10-13T04:47:17;16.20;;;10.83;;
9260;SDS011;4667;42.726;23.252;2023-10-13T04:49:47;22.80;;;11.57;;
9260;SDS011;4667;42.726;23.252;2023-10-13T04:52:18;16.87;;;11.83;;
9260;SDS011;4667;42.726;23.252;2023-10-13T04:55:02;21.43;;;11.47;;
9260;SDS011;4667;42.726;23.252;2023-10-13T04:57:42;19.97;;;12.70;;
9260;SDS011;4667;42.726;23.252;2023-10-13T05:00:12;22.63;;;12.33;;
9260;SDS011;4667;42.726;23.252;2023-10-13T05:02:57;19.53;;;11.37;;
9260;SDS011;4667;42.726;23.252;2023-10-13T05:05:51;21.70;;;11.47;;
9260;SDS011;4667;42.726;23.252;2023-10-13T05:08:34;24.23;;;10.23;;
9260;SDS011;4667;42.726;23.252;2023-10-13T05:11:33;17.67;;;10.53;;
9260;SDS011;4667;42.726;23.252;2023-10-13T05:14:17;16.17;;;9.43;;
9260;SDS011;4667;42.726;23.252;2023-10-13T05:17:01;20.80;;;9.13;;
9260;SDS011;4667;42.726;23.252;2023-10-13T05:19:45;13.60;;;10.10;;
9260;SDS011;4667;42.726;23.252;2023-10-13T05:22:30;14.60;;;9.23;;
9260;SDS011;4667;42.726;23.252;2023-10-13T05:25:14;18.50;;;9.13;;
9260;SDS011;4667;42.726;23.252;2023-10-13T05:27:59;13.50;;;8.70;;
9260;SDS011;4667;42.726;23.252;2023-10-13T05:30:43;15.07;;;9.50;;
9260;SDS011;4667;42.726;23.252;2023-10-13T05:33:27;16.47;;;8.70;;
9260;SDS011;4667;42.726;23.252;2023-10-13T05:36:11;14.83;;;9.17;;
9260;SDS011;4667;42.726;23.252;2023-10-13T05:38:57;12.40;;;9.17;;
9260;SDS011;4667;42.726;23.252;2023-10-13T05:41:41;11.70;;;8.43;;
9260;SDS011;4667;42.726;23.252;2023-10-13T05:44:25;15.80;;;9.13;;
9260;SDS011;4667;42.726;23.252;2023-10-13T05:47:13;16.13;;;8.70;;
9260;SDS011;4667;42.726;23.252;2023-10-13T05:50:08;18.03;;;8.60;;
9260;SDS011;4667;42.726;23.252;2023-10-13T05:52:54;16.93;;;9.03;;
9260;SDS011;4667;42.726;23.252;2023-10-13T05:55:40;14.73;;;8.90;;
9260;SDS011;4667;42.726;23.252;2023-10-13T05:58:24;18.50;;;9.50;;
9260;SDS011;4667;42.726;23.252;2023-10-13T06:01:11;13.17;;;8.23;;
9260;SDS011;4667;42.726;23.252;2023-10-13T06:03:56;11.40;;;8.50;;
9260;SDS011;4667;42.726;23.252;2023-10-13T06:06:49;15.43;;;8.77;;
9260;SDS011;4667;42.726;23.252;2023-10-13T06:09:33;14.07;;;9.27;;
9260;SDS011;4667;42.726;23.252;2023-10-13T06:12:18;14.33;;;9.77;;
9260;SDS011;4667;42.726;23.252;2023-10-13T06:15:03;23.43;;;9.33;;
9260;SDS011;4667;42.726;23.252;2023-10-13T06:17:47;18.93;;;9.67;;
9260;SDS011;4667;42.726;23.252;2023-10-13T07:16:56;21.67;;;12.60;;
9260;SDS011;4667;42.726;23.252;2023-10-13T07:19:24;16.77;;;11.63;;
9260;SDS011;4667;42.726;23.252;2023-10-13T07:21:53;17.70;;;12.27;;
9260;SDS011;4667;42.726;23.252;2023-10-13T07:24:24;24.02;;;13.48;;
9260;SDS011;4667;42.726;23.252;2023-10-13T07:26:56;26.98;;;15.82;;
9260;SDS011;4667;42.726;23.252;2023-10-13T07:29:28;17.63;;;11.98;;
9260;SDS011;4667;42.726;23.252;2023-10-13T07:32:00;19.98;;;11.00;;
9260;SDS011;4667;42.726;23.252;2023-10-13T07:34:28;21.70;;;10.85;;
9260;SDS011;4667;42.726;23.252;2023-10-13T07:36:57;20.42;;;11.77;;
9260;SDS011;4667;42.726;23.252;2023-10-13T07:39:25;16.50;;;11.05;;
9260;SDS011;4667;42.726;23.252;2023-10-13T07:41:53;16.75;;;10.55;;
9260;SDS011;4667;42.726;23.252;2023-10-13T07:44:28;16.80;;;11.50;;
9260;SDS011;4667;42.726;23.252;2023-10-13T07:46:58;19.20;;;12.70;;
9260;SDS011;4667;42.726;23.252;2023-10-13T07:49:30;21.48;;;12.85;;
9260;SDS011;4667;42.726;23.252;2023-10-13T07:51:58;19.27;;;12.75;;
9260;SDS011;4667;42.726;23.252;2023-10-13T07:54:41;22.17;;;12.80;;
9260;SDS011;4667;42.726;23.252;2023-10-13T07:57:08;21.70;;;13.30;;
9260;SDS011;4667;42.726;23.252;2023-10-13T07:59:35;23.63;;;13.48;;
9260;SDS011;4667;42.726;23.252;2023-10-13T08:02:12;37.00;;;16.90;;
9260;SDS011;4667;42.726;23.252;2023-10-13T08:04:59;20.40;;;15.02;;
9260;SDS011;4667;42.726;23.252;2023-10-13T08:07:29;21.17;;;14.05;;
9260;SDS011;4667;42.726;23.252;2023-10-13T08:09:56;20.75;;;13.50;;
9260;SDS011;4667;42.726;23.252;2023-10-13T08:12:24;21.55;;;14.48;;
9260;SDS011;4667;42.726;23.252;2023-10-13T08:14:52;28.83;;;14.38;;
9260;SDS011;4667;42.726;23.252;2023-10-13T08:17:37;25.73;;;14.35;;
9260;SDS011;4667;42.726;23.252;2023-10-13T08:20:11;20.95;;;13.07;;
9260;SDS011;4667;42.726;23.252;2023-10-13T08:22:38;18.80;;;14.38;;
9260;SDS011;4667;42.726;23.252;2023-10-13T08:25:12;23.65;;;14.25;;
9260;SDS011;4667;42.726;23.252;2023-10-13T08:27:46;22.13;;;14.00;;
9260;SDS011;4667;42.726;23.252;2023-10-13T08:30:30;24.20;;;13.57;;
9260;SDS011;4667;42.726;23.252;2023-10-13T08:33:07;24.90;;;13.75;;
9260;SDS011;4667;42.726;23.252;2023-10-13T08:35:43;24.92;;;15.00;;
9260;SDS011;4667;42.726;23.252;2023-10-13T08:38:30;25.08;;;14.20;;
9260;SDS011;4667;42.726;23.252;2023-10-13T08:41:15;25.45;;;13.25;;
9260;SDS011;4667;42.726;23.252;2023-10-13T08:43:54;26.90;;;12.88;;
9260;SDS011;4667;42.726;23.252;2023-10-13T08:46:29;25.80;;;13.75;;
9260;SDS011;4667;42.726;23.252;2023-10-13T08:49:16;22.20;;;13.38;;
9260;SDS011;4667;42.726;23.252;2023-10-13T08:51:49;21.13;;;13.82;;
9260;SDS011;4667;42.726;23.252;2023-10-13T08:54:30;18.38;;;12.82;;
9260;SDS011;4667;42.726;23.252;2023-10-13T08:57:04;24.83;;;13.32;;
9260;SDS011;4667;42.726;23.252;2023-10-13T08:59:58;20.08;;;11.63;;
9260;SDS011;4667;42.726;23.252;2023-10-13T09:02:44;19.48;;;12.50;;
9260;SDS011;4667;42.726;23.252;2023-10-13T09:05:45;21.77;;;12.35;;
9260;SDS011;4667;42.726;23.252;2023-10-13T09:08:27;18.88;;;11.88;;
9260;SDS011;4667;42.726;23.252;2023-10-13T09:11:01;23.98;;;11.27;;
9260;SDS011;4667;42.726;23.252;2023-10-13T09:13:37;16.17;;;10.48;;
9260;SDS011;4667;42.726;23.252;2023-10-13T09:16:09;17.98;;;10.00;;
9260;SDS011;4667;42.726;23.252;2023-10-13T09:18:42;15.80;;;9.98;;
9260;SDS011;4667;42.726;23.252;2023-10-13T09:21:11;14.32;;;9.57;;
9260;SDS011;4667;42.726;23.252;2023-10-13T09:24:13;14.40;;;10.13;;
9260;SDS011;4667;42.726;23.252;2023-10-13T09:26:46;17.70;;;9.40;;
9260;SDS011;4667;42.726;23.252;2023-10-13T09:29:15;17.60;;;9.25;;
9260;SDS011;4667;42.726;23.252;2023-10-13T09:31:43;14.25;;;9.32;;
9260;SDS011;4667;42.726;23.252;2023-10-13T09:34:19;14.88;;;9.80;;
9260;SDS011;4667;42.726;23.252;2023-10-13T09:36:47;20.30;;;13.00;;
9260;SDS011;4667;42.726;23.252;2023-10-13T09:39:16;15.10;;;10.57;;
9260;SDS011;4667;42.726;23.252;2023-10-13T09:41:58;16.15;;;9.15;;
9260;SDS011;4667;42.726;23.252;2023-10-13T09:44:25;12.40;;;8.68;;
9260;SDS011;4667;42.726;23.252;2023-10-13T09:46:56;14.45;;;7.72;;
9260;SDS011;4667;42.726;23.252;2023-10-13T09:49:31;12.20;;;8.65;;
9260;SDS011;4667;42.726;23.252;2023-10-13T09:52:13;13.02;;;8.13;;
9260;SDS011;4667;42.726;23.252;2023-10-13T09:54:50;14.52;;;7.80;;
9260;SDS011;4667;42.726;23.252;2023-10-13T09:57:27;13.63;;;7.68;;
9260;SDS011;4667;42.726;23.252;2023-10-13T10:00:06;10.30;;;7.60;;
9260;SDS011;4667;42.726;23.252;2023-10-13T10:02:58;13.32;;;7.20;;
9260;SDS011;4667;42.726;23.252;2023-10-13T10:05:39;12.15;;;6.68;;
9260;SDS011;4667;42.726;23.252;2023-10-13T10:08:06;13.10;;;7.10;;
9260;SDS011;4667;42.726;23.252;2023-10-13T10:10:47;9.25;;;6.03;;
9260;SDS011;4667;42.726;23.252;2023-10-13T10:13:21;10.20;;;6.15;;
9260;SDS011;4667;42.726;23.252;2023-10-13T10:15:55;13.45;;;10.82;;
9260;SDS011;4667;42.726;23.252;2023-10-13T10:18:29;12.25;;;6.57;;
9260;SDS011;4667;42.726;23.252;2023-10-13T10:21:02;9.75;;;6.10;;
9260;SDS011;4667;42.726;23.252;2023-10-13T10:23:32;14.07;;;6.45;;
9260;SDS011;4667;42.726;23.252;2023-10-13T10:26:25;9.43;;;6.18;;
9260;SDS011;4667;42.726;23.252;2023-10-13T10:28:55;9.38;;;6.10;;
9260;SDS011;4667;42.726;23.252;2023-10-13T10:31:21;10.07;;;5.97;;
9260;SDS011;4667;42.726;23.252;2023-10-13T10:34:10;12.60;;;5.28;;
9260;SDS011;4667;42.726;23.252;2023-10-13T10:36:37;8.20;;;4.90;;
9260;SDS011;4667;42.726;23.252;2023-10-13T10:39:08;7.88;;;4.57;;
9260;SDS011;4667;42.726;23.252;2023-10-13T10:41:39;11.68;;;4.97;;
9260;SDS011;4667;42.726;23.252;2023-10-13T10:44:11;10.60;;;5.47;;
9260;SDS011;4667;42.726;23.252;2023-10-13T10:46:48;8.38;;;5.32;;
9260;SDS011;4667;42.726;23.252;2023-10-13T10:49:23;10.23;;;5.35;;
9260;SDS011;4667;42.726;23.252;2023-10-13T10:51:57;9.23;;;5.25;;
9260;SDS011;4667;42.726;23.252;2023-10-13T10:54:29;10.35;;;4.55;;
9260;SDS011;4667;42.726;23.252;2023-10-13T10:56:58;6.07;;;4.00;;
9260;SDS011;4667;42.726;23.252;2023-10-13T10:59:37;9.05;;;4.40;;
9260;SDS011;4667;42.726;23.252;2023-10-13T11:02:04;8.40;;;4.03;;
9260;SDS011;4667;42.726;23.252;2023-10-13T11:04:34;6.80;;;4.20;;
9260;SDS011;4667;42.726;23.252;2023-10-13T11:07:06;12.00;;;4.80;;
9260;SDS011;4667;42.726;23.252;2023-10-13T11:09:34;10.55;;;5.85;;
9260;SDS011;4667;42.726;23.252;2023-10-13T11:12:13;7.75;;;3.90;;
9260;SDS011;4667;42.726;23.252;2023-10-13T11:14:41;11.38;;;3.90;;
9260;SDS011;4667;42.726;23.252;2023-10-13T11:17:18;5.13;;;3.90;;
9260;SDS011;4667;42.726;23.252;2023-10-13T11:19:49;8.98;;;3.58;;
9260;SDS011;4667;42.726;23.252;2023-10-13T11:22:17;4.70;;;3.67;;
9260;SDS011;4667;42.726;23.252;2023-10-13T11:24:57;6.22;;;3.53;;
9260;SDS011;4667;42.726;23.252;2023-10-13T11:27:29;9.70;;;4.18;;
9260;SDS011;4667;42.726;23.252;2023-10-13T11:30:21;5.28;;;3.75;;
9260;SDS011;4667;42.726;23.252;2023-10-13T11:32:57;5.75;;;3.55;;
9260;SDS011;4667;42.726;23.252;2023-10-13T11:35:25;5.20;;;2.85;;
9260;SDS011;4667;42.726;23.252;2023-10-13T11:38:14;7.80;;;3.40;;
9260;SDS011;4667;42.726;23.252;2023-10-13T11:40:40;9.38;;;2.92;;
9260;SDS011;4667;42.726;23.252;2023-10-13T11:43:26;5.50;;;2.80;;
9260;SDS011;4667;42.726;23.252;2023-10-13T11:45:52;5.07;;;2.67;;
9260;SDS011;4667;42.726;23.252;2023-10-13T11:48:20;6.60;;;2.53;;
9260;SDS011;4667;42.726;23.252;2023-10-13T11:50:59;4.97;;;2.40;;
9260;SDS011;4667;42.726;23.252;2023-10-13T11:53:30;5.38;;;3.00;;
9260;SDS011;4667;42.726;23.252;2023-10-13T11:55:58;5.07;;;2.92;;
9260;SDS011;4667;42.726;23.252;2023-10-13T11:58:26;5.82;;;2.90;;
9260;SDS011;4667;42.726;23.252;2023-10-13T12:00:53;5.07;;;2.92;;
9260;SDS011;4667;42.726;23.252;2023-10-13T12:03:33;9.15;;;2.75;;
9260;SDS011;4667;42.726;23.252;2023-10-13T12:06:17;3.30;;;2.58;;
9260;SDS011;4667;42.726;23.252;2023-10-13T12:08:57;9.27;;;3.20;;
9260;SDS011;4667;42.726;23.252;2023-10-13T12:11:37;7.70;;;2.80;;
9260;SDS011;4667;42.726;23.252;2023-10-13T12:14:08;6.13;;;2.75;;
9260;SDS011;4667;42.726;23.252;2023-10-13T12:16:46;3.95;;;3.35;;
9260;SDS011;4667;42.726;23.252;2023-10-13T12:19:15;5.70;;;2.70;;
9260;SDS011;4667;42.726;23.252;2023-10-13T12:21:42;7.97;;;3.30;;
9260;SDS011;4667;42.726;23.252;2023-10-13T12:24:11;3.65;;;2.58;;
9260;SDS011;4667;42.726;23.252;2023-10-13T12:26:47;8.63;;;2.90;;
9260;SDS011;4667;42.726;23.252;2023-10-13T12:29:22;4.70;;;2.70;;
9260;SDS011;4667;42.726;23.252;2023-10-13T12:31:53;6.03;;;3.40;;
9260;SDS011;4667;42.726;23.252;2023-10-13T12:34:30;8.50;;;3.63;;
9260;SDS011;4667;42.726;23.252;2023-10-13T12:37:17;6.47;;;3.75;;
9260;SDS011;4667;42.726;23.252;2023-10-13T12:40:03;10.23;;;3.30;;
9260;SDS011;4667;42.726;23.252;2023-10-13T12:42:48;6.45;;;4.22;;
9260;SDS011;4667;42.726;23.252;2023-10-13T12:45:37;6.28;;;3.08;;
9260;SDS011;4667;42.726;23.252;2023-10-13T12:48:22;4.10;;;2.50;;
9260;SDS011;4667;42.726;23.252;2023-10-13T12:51:06;5.68;;;2.85;;
9260;SDS011;4667;42.726;23.252;2023-10-13T12:53:45;7.90;;;3.65;;
9260;SDS011;4667;42.726;23.252;2023-10-13T12:56:12;6.88;;;2.90;;
9260;SDS011;4667;42.726;23.252;2023-10-13T12:58:39;12.90;;;4.45;;
9260;SDS011;4667;42.726;23.252;2023-10-13T13:01:08;6.68;;;3.35;;
9260;SDS011;4667;42.726;23.252;2023-10-13T13:03:34;8.15;;;3.15;;
9260;SDS011;4667;42.726;23.252;2023-10-13T13:06:01;8.05;;;3.20;;
9260;SDS011;4667;42.726;23.252;2023-10-13T13:08:32;5.88;;;3.05;;
9260;SDS011;4667;42.726;23.252;2023-10-13T13:11:01;4.15;;;2.50;;
9260;SDS011;4667;42.726;23.252;2023-10-13T13:13:28;10.30;;;7.00;;
9260;SDS011;4667;42.726;23.252;2023-10-13T13:15:55;8.02;;;5.38;;
9260;SDS011;4667;42.726;23.252;2023-10-13T13:18:23;8.48;;;4.28;;
9260;SDS011;4667;42.726;23.252;2023-10-13T13:20:49;8.30;;;3.40;;
9260;SDS011;4667;42.726;23.252;2023-10-13T13:23:19;12.57;;;3.50;;
9260;SDS011;4667;42.726;23.252;2023-10-13T13:25:50;7.32;;;3.95;;
9260;SDS011;4667;42.726;23.252;2023-10-13T13:28:17;5.72;;;3.60;;
9260;SDS011;4667;42.726;23.252;2023-10-13T13:30:44;5.57;;;3.25;;
9260;SDS011;4667;42.726;23.252;2023-10-13T13:33:15;11.10;;;3.90;;
9260;SDS011;4667;42.726;23.252;2023-10-13T13:35:52;8.18;;;3.50;;
9260;SDS011;4667;42.726;23.252;2023-10-13T13:38:20;5.32;;;3.50;;
9260;SDS011;4667;42.726;23.252;2023-10-13T13:40:52;7.85;;;3.03;;
9260;SDS011;4667;42.726;23.252;2023-10-13T13:43:20;11.00;;;4.38;;
9260;SDS011;4667;42.726;23.252;2023-10-13T13:46:02;8.95;;;5.80;;
9260;SDS011;4667;42.726;23.252;2023-10-13T13:48:28;6.60;;;3.70;;
9260;SDS011;4667;42.726;23.252;2023-10-13T13:50:57;9.85;;;5.00;;
9260;SDS011;4667;42.726;23.252;2023-10-13T13:53:30;8.32;;;3.80;;
9260;SDS011;4667;42.726;23.252;2023-10-13T13:55:59;9.70;;;4.93;;
9260;SDS011;4667;42.726;23.252;2023-10-13T13:58:27;8.60;;;4.00;;
9260;SDS011;4667;42.726;23.252;2023-10-13T14:00:59;8.07;;;4.30;;
9260;SDS011;4667;42.726;23.252;2023-10-13T14:03:26;8.35;;;3.90;;
9260;SDS011;4667;42.726;23.252;2023-10-13T14:05:58;7.82;;;3.83;;
9260;SDS011;4667;42.726;23.252;2023-10-13T14:08:25;9.35;;;4.47;;
9260;SDS011;4667;42.726;23.252;2023-10-13T14:10:52;6.00;;;4.57;;
9260;SDS011;4667;42.726;23.252;2023-10-13T14:13:36;12.05;;;4.40;;
9260;SDS011;4667;42.726;23.252;2023-10-13T14:16:14;11.57;;;6.22;;
9260;SDS011;4667;42.726;23.252;2023-10-13T14:18:44;5.57;;;3.70;;
9260;SDS011;4667;42.726;23.252;2023-10-13T14:21:13;6.20;;;3.33;;
9260;SDS011;4667;42.726;23.252;2023-10-13T14:23:43;9.10;;;3.63;;
9260;SDS011;4667;42.726;23.252;2023-10-13T14:26:12;9.30;;;4.47;;
9260;SDS011;4667;42.726;23.252;2023-10-13T14:28:39;4.90;;;3.13;;
9260;SDS011;4667;42.726;23.252;2023-10-13T14:31:16;7.38;;;3.40;;
9260;SDS011;4667;42.726;23.252;2023-10-13T14:33:44;10.55;;;4.20;;
9260;SDS011;4667;42.726;23.252;2023-10-13T14:36:13;10.73;;;4.63;;
9260;SDS011;4667;42.726;23.252;2023-10-13T14:38:45;7.97;;;4.57;;
9260;SDS011;4667;42.726;23.252;2023-10-13T14:41:14;9.23;;;4.10;;
9260;SDS011;4667;42.726;23.252;2023-10-13T14:43:41;7.20;;;4.03;;
9260;SDS011;4667;42.726;23.252;2023-10-13T14:46:12;6.38;;;3.30;;
9260;SDS011;4667;42.726;23.252;2023-10-13T14:48:40;8.40;;;5.25;;
9260;SDS011;4667;42.726;23.252;2023-10-13T14:51:08;7.63;;;4.25;;
9260;SDS011;4667;42.726;23.252;2023-10-13T14:53:39;7.13;;;3.80;;
9260;SDS011;4667;42.726;23.252;2023-10-13T14:56:09;8.15;;;4.25;;
9260;SDS011;4667;42.726;23.252;2023-10-13T14:58:37;8.15;;;3.70;;
9260;SDS011;4667;42.726;23.252;2023-10-13T15:01:10;9.73;;;4.15;;
9260;SDS011;4667;42.726;23.252;2023-10-13T15:03:40;7.30;;;3.72;;
9260;SDS011;4667;42.726;23.252;2023-10-13T15:06:07;7.18;;;4.13;;
9260;SDS011;4667;42.726;23.252;2023-10-13T15:08:43;9.10;;;3.88;;
9260;SDS011;4667;42.726;23.252;2023-10-13T15:11:12;8.27;;;4.38;;
9260;SDS011;4667;42.726;23.252;2023-10-13T15:13:39;10.35;;;4.43;;
9260;SDS011;4667;42.726;23.252;2023-10-13T15:16:13;8.52;;;4.88;;
9260;SDS011;4667;42.726;23.252;2023-10-13T15:18:42;10.30;;;6.90;;
9260;SDS011;4667;42.726;23.252;2023-10-13T15:21:09;13.82;;;6.75;;
9260;SDS011;4667;42.726;23.252;2023-10-13T15:23:36;11.30;;;6.03;;
9260;SDS011;4667;42.726;23.252;2023-10-13T15:26:09;12.80;;;5.85;;
9260;SDS011;4667;42.726;23.252;2023-10-13T15:28:37;10.90;;;5.35;;
9260;SDS011;4667;42.726;23.252;2023-10-13T15:31:13;11.95;;;5.20;;
9260;SDS011;4667;42.726;23.252;2023-10-13T15:33:51;11.35;;;5.07;;
9260;SDS011;4667;42.726;23.252;2023-10-13T15:36:20;14.50;;;5.65;;
9260;SDS011;4667;42.726;23.252;2023-10-13T15:38:49;12.85;;;6.30;;
9260;SDS011;4667;42.726;23.252;2023-10-13T15:41:24;8.02;;;5.82;;
9260;SDS011;4667;42.726;23.252;2023-10-13T15:43:52;10.00;;;5.07;;
9260;SDS011;4667;42.726;23.252;2023-10-13T15:46:20;14.55;;;7.35;;
9260;SDS011;4667;42.726;23.252;2023-10-13T15:48:50;13.77;;;5.75;;
9260;SDS011;4667;42.726;23.252;2023-10-13T15:51:21;11.73;;;4.53;;
9260;SDS011;4667;42.726;23.252;2023-10-13T15:53:50;17.48;;;10.88;;
9260;SDS011;4667;42.726;23.252;2023-10-13T15:56:18;12.52;;;6.03;;
9260;SDS011;4667;42.726;23.252;2023-10-13T15:58:48;9.98;;;5.85;;
9260;SDS011;4667;42.726;23.252;2023-10-13T16:01:16;16.77;;;5.25;;
9260;SDS011;4667;42.726;23.252;2023-10-13T16:03:48;10.38;;;5.22;;
9260;SDS011;4667;42.726;23.252;2023-10-13T16:06:17;14.90;;;5.50;;
9260;SDS011;4667;42.726;23.252;2023-10-13T16:08:44;10.55;;;5.53;;
9260;SDS011;4667;42.726;23.252;2023-10-13T16:11:12;15.18;;;7.15;;
9260;SDS011;4667;42.726;23.252;2023-10-13T16:13:40;15.35;;;7.50;;
9260;SDS011;4667;42.726;23.252;2023-10-13T16:16:15;14.25;;;5.32;;
9260;SDS011;4667;42.726;23.252;2023-10-13T16:18:42;12.43;;;5.68;;
9260;SDS011;4667;42.726;23.252;2023-10-13T16:21:10;10.23;;;6.68;;
9260;SDS011;4667;42.726;23.252;2023-10-13T16:23:39;11.27;;;5.25;;
9260;SDS011;4667;42.726;23.252;2023-10-13T16:26:06;13.93;;;5.70;;